Terminal Aerodrome Forecast
Issued by NWS

Home | Current Version | Previous Version | Text Only | Print | Product List | Glossary On
Versions: 1 2 3 4 5 6 7 8 9 10 11 12 13 14 15 16 17
000
FTUS44 KLIX 201700
TAFMSY
TAF
KMSY 201729Z 2018/2118 20007KT P6SM VCTS SCT035CB BKN250
     FM210100 20005KT P6SM SCT250
     FM211500 20005KT P6SM SCT030 SCT250=

USA.gov is the U.S. government's official web portal to all federal, state and local government web resources and services.